Tsm Penzer — FIZR — position and weather

sailwx.info

Track history (hours):
 
Tides and Currents Weather Stations Pressure Air Temp Water Temp Dewpoint Dewpoint Depression Visibility Wind Speed Wind Dir Waves Ship Positions

Tsm Penzer

Last reported at 2018-Aug-13 19:45 UTC. Time now 2018-Aug-14 13:45 UTC.
Position N 48°23' W 004°29'.

Length 28 m; draft 1 m.

Type: Other ship. MMSI: 228076900.

Date/timePositionNaut miles runAvg speedWind from/ knotsBaromVisibWave heightAir tempDewpointWater temp
2018-Aug-13 19:45N 48°23' W 004°29'1 5.0
2018-Aug-13 19:30N 48°23' W 004°27'0 0.2
2018-Aug-13 19:00N 48°23' W 004°28'1 1.5
2018-Aug-13 18:30N 48°23' W 004°29'4 8.5
2018-Aug-13 18:00N 48°21' W 004°34'611.1
2018-Aug-13 17:30N 48°19' W 004°42'4 7.6
2018-Aug-13 17:01N 48°22' W 004°47'0 0.0
2018-Aug-12 18:36N 48°22' W 004°46'0 0.1
2018-Aug-12 18:30N 48°22' W 004°46'0 0.1
2018-Aug-12 18:00N 48°22' W 004°46'0 0.0
2018-Aug-12 17:30N 48°22' W 004°46'0 0.0
2018-Aug-12 17:01N 48°22' W 004°46'0 0.0
2018-Aug-12 16:30N 48°22' W 004°46'0 0.1
2018-Aug-12 16:00N 48°22' W 004°46'0 0.0
2018-Aug-12 15:30N 48°22' W 004°46'0 0.0
2018-Aug-12 15:00N 48°22' W 004°46'0 0.0
2018-Aug-12 14:30N 48°22' W 004°46'0 0.0
2018-Aug-11 16:06N 48°22' W 004°46'0 0.0
2018-Aug-11 16:01N 48°22' W 004°46'0 0.0
2018-Aug-11 15:31N 48°22' W 004°46'0 0.0
2018-Aug-11 15:01N 48°22' W 004°46'0 0.3
2018-Aug-11 14:30N 48°22' W 004°47'0 0.0
2018-Aug-11 06:43N 48°22' W 004°47'0 0.0
2018-Aug-11 06:30N 48°22' W 004°47'0 0.0
2018-Aug-11 06:01N 48°22' W 004°47'0 0.0
2018-Aug-11 05:31N 48°22' W 004°47'0 0.0
2018-Aug-11 05:00N 48°22' W 004°47'0 0.4
2018-Aug-11 04:31N 48°22' W 004°47'4 8.0
2018-Aug-11 04:00N 48°19' W 004°42'611.7
2018-Aug-11 03:31N 48°21' W 004°33'4 7.1
2018-Aug-11 03:00N 48°23' W 004°29'0 0.0
2018-Aug-10 09:53N 48°23' W 004°29'0 0.0
2018-Aug-10 09:31N 48°23' W 004°29'0 0.0
2018-Aug-10 09:00N 48°23' W 004°29'0 0.0
2018-Aug-10 08:31N 48°23' W 004°29'0 0.0
2018-Aug-10 08:00N 48°23' W 004°29'0 0.0
2018-Aug-10 07:30N 48°23' W 004°29'0 0.0
2018-Aug-09 12:54N 48°23' W 004°29'0 0.0
2018-Aug-09 12:31N 48°23' W 004°29'611.6
2018-Aug-09 12:00N 48°20' W 004°36'612.1
2018-Aug-09 11:30N 48°19' W 004°46'5 9.6
2018-Aug-09 11:00N 48°24' W 004°48'510.1
2018-Aug-09 10:30N 48°29' W 004°49'510.2
2018-Aug-09 10:00N 48°34' W 004°48'510.7
2018-Aug-09 09:30N 48°38' W 004°44'612.5
2018-Aug-09 09:00N 48°42' W 004°36'12011.4
2018-Aug-08 22:25N 49°44' W 001°58'3613.6
2018-Aug-08 19:48N 49°43' W 001°04'311.1
2018-Aug-08 19:30N 49°41' W 000°59'510.7
2018-Aug-08 19:00N 49°40' W 000°51'510.6
2018-Aug-08 18:30N 49°38' W 000°43'510.4
2018-Aug-08 18:00N 49°36' W 000°36'510.1
2018-Aug-08 17:30N 49°35' W 000°28'510.2
2018-Aug-08 16:59N 49°33' W 000°21'510.4
2018-Aug-08 16:30N 49°31' W 000°13'510.8
2018-Aug-08 16:00N 49°29' W 000°06'510.9
2018-Aug-08 15:30N 49°27' E 000°02'510.7
2018-Aug-08 15:00N 49°26' E 000°10'612.2
2018-Aug-08 14:31N 49°26' E 000°20'713.4
2018-Aug-08 14:00N 49°29' E 000°29'0 0.6
2018-Aug-08 13:29N 49°29' E 000°29'0 0.0
2018-Aug-08 12:57N 49°29' E 000°29'0 0.0
2018-Aug-08 12:30N 49°29' E 000°29'0 0.0
2018-Aug-08 12:00N 49°29' E 000°29'0 0.0
2018-Aug-08 11:30N 49°29' E 000°29'0 0.0
2018-Aug-08 11:00N 49°29' E 000°29'3 5.9
2018-Aug-08 10:31N 49°27' E 000°33'0 0.5
2018-Aug-08 10:00N 49°28' E 000°33'0 0.1
2018-Aug-08 09:30N 49°28' E 000°33'0 0.1
2018-Aug-08 09:00N 49°28' E 000°33'0 0.2
2018-Aug-08 08:30N 49°28' E 000°33'0 0.1
2018-Aug-08 08:00N 49°28' E 000°33'1 1.0
2018-Aug-08 07:31N 49°27' E 000°33'0 0.6
2018-Aug-08 07:00N 49°27' E 000°33'0 0.6
2018-Aug-08 06:30N 49°27' E 000°33'3 6.5
2018-Aug-08 06:01N 49°29' E 000°29'0 0.0
2018-Aug-08 05:30N 49°29' E 000°29'0 0.0
2018-Aug-08 05:00N 49°29' E 000°29'0 0.0
2018-Aug-08 04:30N 49°29' E 000°29'0 0.0
2018-Aug-08 04:00N 49°29' E 000°29'0 0.0
2018-Aug-08 03:30N 49°29' E 000°29'0 0.0
2018-Aug-08 03:00N 49°29' E 000°29'0 0.0
2018-Aug-08 02:30N 49°29' E 000°29'0 0.0
2018-Aug-08 02:00N 49°29' E 000°29'0 0.0
2018-Aug-08 01:30N 49°29' E 000°29'0 0.0
2018-Aug-08 01:00N 49°29' E 000°29'0 0.0
2018-Aug-08 00:30N 49°29' E 000°29'0 0.0
2018-Aug-08 00:00N 49°29' E 000°29'0 0.0
2018-Aug-07 23:30N 49°29' E 000°29'0 0.0
2018-Aug-07 23:00N 49°29' E 000°29'0 0.0
2018-Aug-07 22:30N 49°29' E 000°29'0 0.0
2018-Aug-07 22:00N 49°29' E 000°29'0 0.0
2018-Aug-07 21:30N 49°29' E 000°29'0 0.0
2018-Aug-07 21:00N 49°29' E 000°29'0 0.0
2018-Aug-07 20:30N 49°29' E 000°29'0 0.0
2018-Aug-07 20:00N 49°29' E 000°29'0 0.0
2018-Aug-07 19:30N 49°29' E 000°29'0 0.0
2018-Aug-07 19:00N 49°29' E 000°29'0 0.0
2018-Aug-07 18:30N 49°29' E 000°29'0 0.0
2018-Aug-07 17:58N 49°29' E 000°29'0 0.0
2018-Aug-07 17:30N 49°29' E 000°29'0 0.0
2018-Aug-07 16:53N 49°29' E 000°29'0 0.0
2018-Aug-07 16:30N 49°29' E 000°29'0 0.0
2018-Aug-07 15:56N 49°29' E 000°29'0 0.0
2018-Aug-07 15:26N 49°29' E 000°29'0 0.0
2018-Aug-07 15:00N 49°29' E 000°29'1 2.1
2018-Aug-07 14:30N 49°29' E 000°31'2 4.2
2018-Aug-07 14:00N 49°27' E 000°33'0 0.2
2018-Aug-07 13:30N 49°27' E 000°33'0 0.2
2018-Aug-07 13:00N 49°27' E 000°33'0 0.1
2018-Aug-07 12:30N 49°27' E 000°33'0 0.3
2018-Aug-07 12:00N 49°27' E 000°33'0 0.9
2018-Aug-07 11:30N 49°28' E 000°33'0 0.0
2018-Aug-07 11:00N 49°28' E 000°33'0 0.0
2018-Aug-07 10:30N 49°28' E 000°33'0 0.9
2018-Aug-07 10:00N 49°27' E 000°33'0 0.1
2018-Aug-07 09:30N 49°27' E 000°33'0 0.2
2018-Aug-07 09:01N 49°27' E 000°33'0 0.1
2018-Aug-07 08:30N 49°27' E 000°33'0 0.1
2018-Aug-07 08:00N 49°27' E 000°33'0 0.1
2018-Aug-07 07:30N 49°27' E 000°33'0 0.2
2018-Aug-07 07:01N 49°28' E 000°33'3 5.8
2018-Aug-07 06:31N 49°29' E 000°29'0 0.1
2018-Aug-07 06:00N 49°29' E 000°29'0 0.0
2018-Aug-07 05:30N 49°29' E 000°29'0 0.0
2018-Aug-07 04:58N 49°29' E 000°29'0 0.0
2018-Aug-07 04:30N 49°29' E 000°29'0 0.0
2018-Aug-07 04:00N 49°29' E 000°29'0 0.0
2018-Aug-07 03:29N 49°29' E 000°29'0 0.0
2018-Aug-07 03:00N 49°29' E 000°29'0 0.0
2018-Aug-07 02:30N 49°29' E 000°29'0 0.0
2018-Aug-07 02:00N 49°29' E 000°29'0 0.0
2018-Aug-07 01:30N 49°29' E 000°29'0 0.0
2018-Aug-07 01:00N 49°29' E 000°29'0 0.0
2018-Aug-07 00:30N 49°29' E 000°29'0 0.0
2018-Aug-07 00:00N 49°29' E 000°29'0 0.0
2018-Aug-06 23:30N 49°29' E 000°29'0 0.0
2018-Aug-06 22:59N 49°29' E 000°29'0 0.0
2018-Aug-06 22:30N 49°29' E 000°29'0 0.0
2018-Aug-06 22:00N 49°29' E 000°29'0 0.0
2018-Aug-06 21:30N 49°29' E 000°29'0 0.0
2018-Aug-06 21:00N 49°29' E 000°29'0 0.0
2018-Aug-06 20:29N 49°29' E 000°29'0 0.0
2018-Aug-06 20:00N 49°29' E 000°29'0 0.0
2018-Aug-06 19:30N 49°29' E 000°29'0 0.0
2018-Aug-06 19:00N 49°29' E 000°29'0 0.0
2018-Aug-06 18:30N 49°29' E 000°29'0 0.0
2018-Aug-06 17:56N 49°29' E 000°29'0 0.0
2018-Aug-06 17:30N 49°29' E 000°29'0 0.0
2018-Aug-06 16:59N 49°29' E 000°29'0 0.0
2018-Aug-06 16:30N 49°29' E 000°29'0 0.0
2018-Aug-06 16:00N 49°29' E 000°29'0 0.1
2018-Aug-06 15:30N 49°29' E 000°29'0 0.0
2018-Aug-06 15:00N 49°29' E 000°29'0 0.0
2018-Aug-06 14:30N 49°29' E 000°29'0 0.0
2018-Aug-06 14:00N 49°29' E 000°29'0 0.0
2018-Aug-06 13:30N 49°29' E 000°29'0 0.0
2018-Aug-06 13:00N 49°29' E 000°29'0 0.0
2018-Aug-06 12:30N 49°29' E 000°29'0 0.0
2018-Aug-06 12:00N 49°29' E 000°29'0 0.0
2018-Aug-06 11:30N 49°29' E 000°29'0 0.0
2018-Aug-06 11:00N 49°29' E 000°29'0 0.0
2018-Aug-06 10:30N 49°29' E 000°29'0 0.0
2018-Aug-06 10:00N 49°29' E 000°29'2 3.0
2018-Aug-06 09:30N 49°28' E 000°28'3 6.2
2018-Aug-06 09:00N 49°27' E 000°23'3 5.3
2018-Aug-06 08:30N 49°26' E 000°19'3 6.0
2018-Aug-06 08:00N 49°26' E 000°15'3 7.0
2018-Aug-06 07:30N 49°26' E 000°10'4 8.2
2018-Aug-06 07:00N 49°27' E 000°03'5 9.4
2018-Aug-06 06:30N 49°27' W 000°04'5 9.3
2018-Aug-06 06:00N 49°28' W 000°11'5 9.2
2018-Aug-06 05:30N 49°29' W 000°18'5 9.3
2018-Aug-06 05:00N 49°31' W 000°25'5 9.6
2018-Aug-06 04:30N 49°32' W 000°32'5 9.8
2018-Aug-06 04:00N 49°34' W 000°39'5 9.7
2018-Aug-06 03:29N 49°35' W 000°46'3710.6
2018-Aug-05 23:58N 49°45' W 001°42'1010.8
2018-Aug-05 23:00N 49°45' W 001°58'510.4
2018-Aug-05 22:31N 49°41' W 002°02'5 9.2
2018-Aug-05 22:01N 49°37' W 002°05'7 8.4
2018-Aug-05 21:07N 49°30' W 002°11'3 7.9
2018-Aug-05 20:42N 49°27' W 002°14'2 7.4
2018-Aug-05 20:28N 49°26' W 002°16'5 7.3
2018-Aug-05 19:49N 49°23' W 002°21'2 7.1
2018-Aug-05 19:30N 49°22' W 002°24'5 7.4
2018-Aug-05 18:51N 49°19' W 002°31'5 7.5
2018-Aug-05 18:12N 49°18' W 002°38'4 7.5
2018-Aug-05 17:42N 49°16' W 002°43'2 7.4
2018-Aug-05 17:27N 49°15' W 002°45'4 7.6
2018-Aug-05 16:59N 49°13' W 002°50'4 7.7
2018-Aug-05 16:30N 49°12' W 002°55'4 7.7
2018-Aug-05 16:00N 49°10' W 003°00'4 7.6
2018-Aug-05 15:30N 49°08' W 003°05'4 7.7
2018-Aug-05 15:00N 49°06' W 003°10'6 7.7
2018-Aug-05 14:17N 49°03' W 003°18'15 8.4
2018-Aug-05 12:28N 48°56' W 003°38'43 9.7
2018-Aug-05 08:02N 48°39' W 004°38'011.1
2018-Aug-05 08:00N 48°39' W 004°39'510.9
2018-Aug-05 07:30N 48°36' W 004°46'510.5
2018-Aug-05 07:00N 48°31' W 004°49'5 9.6
2018-Aug-05 06:30N 48°27' W 004°49'510.0
2018-Aug-05 06:01N 48°22' W 004°48'1 1.2
2018-Aug-05 05:30N 48°22' W 004°47'2 3.8
2018-Aug-05 05:00N 48°20' W 004°47'4 8.3
2018-Aug-05 04:30N 48°16' W 004°46'4 7.9
2018-Aug-05 04:00N 48°12' W 004°46'4 7.9
2018-Aug-05 03:30N 48°08' W 004°46'4 7.8
2018-Aug-05 03:00N 48°04' W 004°46'5 9.6
2018-Aug-05 02:30N 47°59' W 004°43'26 9.5
2018-Aug-04 23:49N 47°41' W 004°17'3 9.5
2018-Aug-04 23:27N 47°39' W 004°12'6 9.5
2018-Aug-04 22:52N 47°37' W 004°05'4 9.3
2018-Aug-04 22:28N 47°35' W 003°60'4 9.1
2018-Aug-04 22:00N 47°34' W 003°54'5 9.1
2018-Aug-04 21:30N 47°32' W 003°48'5 9.2
2018-Aug-04 21:00N 47°30' W 003°42'5 9.4
2018-Aug-04 20:30N 47°29' W 003°35'5 9.2
2018-Aug-04 20:00N 47°27' W 003°29'5 9.0
2018-Aug-04 19:30N 47°26' W 003°23'5 9.0
2018-Aug-04 19:00N 47°24' W 003°16'5 9.1
2018-Aug-04 18:30N 47°22' W 003°10'4 8.5
2018-Aug-04 18:00N 47°21' W 003°04'5 9.2
2018-Aug-04 17:30N 47°20' W 002°58'4 9.0
2018-Aug-04 17:00N 47°18' W 002°51'5 8.9
2018-Aug-04 16:30N 47°19' W 002°45'4 8.9
2018-Aug-04 16:00N 47°20' W 002°38'4 8.1
2018-Aug-04 15:30N 47°20' W 002°32'0 0.1
2018-Aug-04 15:00N 47°20' W 002°32'0 0.0
2018-Aug-04 14:30N 47°20' W 002°32'1 3.0
2018-Aug-04 14:00N 47°20' W 002°34'510.2
2018-Aug-04 13:30N 47°18' W 002°41'5 9.0
2018-Aug-04 12:58N 47°14' W 002°46'0 0.3
2018-Aug-04 12:29N 47°14' W 002°46'0 0.3
2018-Aug-04 12:00N 47°14' W 002°46'0 0.1
2018-Aug-04 11:30N 47°14' W 002°46'0 0.7
2018-Aug-04 11:00N 47°14' W 002°46'0 0.0
2018-Aug-04 10:30N 47°14' W 002°46'0 0.0
2018-Aug-04 10:00N 47°14' W 002°46'0 0.0
2018-Aug-04 09:30N 47°14' W 002°46'0 0.0
2018-Aug-04 08:58N 47°14' W 002°46'0 0.0
2018-Aug-04 08:30N 47°14' W 002°46'0 0.0
2018-Aug-04 07:59N 47°14' W 002°46'0 0.0
2018-Aug-04 07:29N 47°14' W 002°46'0 0.0
2018-Aug-04 07:00N 47°14' W 002°46'0 0.0
2018-Aug-04 06:30N 47°14' W 002°46'0 0.0
2018-Aug-04 06:00N 47°14' W 002°46'1 1.3
2018-Aug-04 05:30N 47°15' W 002°46'610.9
2018-Aug-04 05:00N 47°18' W 002°40'611.3
2018-Aug-04 04:30N 47°20' W 002°32'1 1.4
2018-Aug-04 04:00N 47°21' W 002°31'0 0.0
2018-Aug-04 03:30N 47°21' W 002°31'0 0.0
2018-Aug-04 03:00N 47°21' W 002°31'0 0.0
2018-Aug-04 02:29N 47°21' W 002°31'0 0.0
2018-Aug-04 02:00N 47°21' W 002°31'0 0.0
2018-Aug-04 01:28N 47°21' W 002°31'0 0.0
2018-Aug-04 00:58N 47°21' W 002°31'0 0.0
2018-Aug-04 00:30N 47°21' W 002°31'0 0.0
2018-Aug-04 00:00N 47°21' W 002°31'0 0.0
2018-Aug-03 23:27N 47°21' W 002°31'0 0.0
2018-Aug-03 22:57N 47°21' W 002°31'0 0.0
2018-Aug-03 22:30N 47°21' W 002°31'0 0.0
2018-Aug-03 22:00N 47°21' W 002°31'0 0.0
2018-Aug-03 21:30N 47°21' W 002°31'0 0.0
2018-Aug-03 21:00N 47°21' W 002°31'0 0.0
2018-Aug-03 20:30N 47°21' W 002°31'0 0.0
2018-Aug-03 20:00N 47°21' W 002°31'  
Track history (hours):
 
Tides and Currents Weather Stations Pressure Air Temp Water Temp Dewpoint Dewpoint Depression Visibility Wind Speed Wind Dir Waves Ship Positions

Tsm Penzer

Last reported at 2018-Aug-13 19:45 UTC. Time now 2018-Aug-14 13:45 UTC.
Position N 48°23' W 004°29'.

Length 28 m; draft 1 m.

Type: Other ship. MMSI: 228076900.

Date/timePositionNaut miles runAvg speedWind from/ knotsBaromVisibWave heightAir tempDewpointWater temp
2018-Aug-13 19:45N 48°23' W 004°29'1 5.0
2018-Aug-13 19:30N 48°23' W 004°27'0 0.2
2018-Aug-13 19:00N 48°23' W 004°28'1 1.5
2018-Aug-13 18:30N 48°23' W 004°29'4 8.5
2018-Aug-13 18:00N 48°21' W 004°34'611.1
2018-Aug-13 17:30N 48°19' W 004°42'4 7.6
2018-Aug-13 17:01N 48°22' W 004°47'0 0.0
2018-Aug-12 18:36N 48°22' W 004°46'0 0.1
2018-Aug-12 18:30N 48°22' W 004°46'0 0.1
2018-Aug-12 18:00N 48°22' W 004°46'0 0.0
2018-Aug-12 17:30N 48°22' W 004°46'0 0.0
2018-Aug-12 17:01N 48°22' W 004°46'0 0.0
2018-Aug-12 16:30N 48°22' W 004°46'0 0.1
2018-Aug-12 16:00N 48°22' W 004°46'0 0.0
2018-Aug-12 15:30N 48°22' W 004°46'0 0.0
2018-Aug-12 15:00N 48°22' W 004°46'0 0.0
2018-Aug-12 14:30N 48°22' W 004°46'0 0.0
2018-Aug-11 16:06N 48°22' W 004°46'0 0.0
2018-Aug-11 16:01N 48°22' W 004°46'0 0.0
2018-Aug-11 15:31N 48°22' W 004°46'0 0.0
2018-Aug-11 15:01N 48°22' W 004°46'0 0.3
2018-Aug-11 14:30N 48°22' W 004°47'0 0.0
2018-Aug-11 06:43N 48°22' W 004°47'0 0.0
2018-Aug-11 06:30N 48°22' W 004°47'0 0.0
2018-Aug-11 06:01N 48°22' W 004°47'0 0.0
2018-Aug-11 05:31N 48°22' W 004°47'0 0.0
2018-Aug-11 05:00N 48°22' W 004°47'0 0.4
2018-Aug-11 04:31N 48°22' W 004°47'4 8.0
2018-Aug-11 04:00N 48°19' W 004°42'611.7
2018-Aug-11 03:31N 48°21' W 004°33'4 7.1
2018-Aug-11 03:00N 48°23' W 004°29'0 0.0
2018-Aug-10 09:53N 48°23' W 004°29'0 0.0
2018-Aug-10 09:31N 48°23' W 004°29'0 0.0
2018-Aug-10 09:00N 48°23' W 004°29'0 0.0
2018-Aug-10 08:31N 48°23' W 004°29'0 0.0
2018-Aug-10 08:00N 48°23' W 004°29'0 0.0
2018-Aug-10 07:30N 48°23' W 004°29'0 0.0
2018-Aug-09 12:54N 48°23' W 004°29'0 0.0
2018-Aug-09 12:31N 48°23' W 004°29'611.6
2018-Aug-09 12:00N 48°20' W 004°36'612.1
2018-Aug-09 11:30N 48°19' W 004°46'5 9.6
2018-Aug-09 11:00N 48°24' W 004°48'510.1
2018-Aug-09 10:30N 48°29' W 004°49'510.2
2018-Aug-09 10:00N 48°34' W 004°48'510.7
2018-Aug-09 09:30N 48°38' W 004°44'612.5
2018-Aug-09 09:00N 48°42' W 004°36'12011.4
2018-Aug-08 22:25N 49°44' W 001°58'3613.6
2018-Aug-08 19:48N 49°43' W 001°04'311.1
2018-Aug-08 19:30N 49°41' W 000°59'510.7
2018-Aug-08 19:00N 49°40' W 000°51'510.6
2018-Aug-08 18:30N 49°38' W 000°43'510.4
2018-Aug-08 18:00N 49°36' W 000°36'510.1
2018-Aug-08 17:30N 49°35' W 000°28'510.2
2018-Aug-08 16:59N 49°33' W 000°21'510.4
2018-Aug-08 16:30N 49°31' W 000°13'510.8
2018-Aug-08 16:00N 49°29' W 000°06'510.9
2018-Aug-08 15:30N 49°27' E 000°02'510.7
2018-Aug-08 15:00N 49°26' E 000°10'612.2
2018-Aug-08 14:31N 49°26' E 000°20'713.4
2018-Aug-08 14:00N 49°29' E 000°29'0 0.6
2018-Aug-08 13:29N 49°29' E 000°29'0 0.0
2018-Aug-08 12:57N 49°29' E 000°29'0 0.0
2018-Aug-08 12:30N 49°29' E 000°29'0 0.0
2018-Aug-08 12:00N 49°29' E 000°29'0 0.0
2018-Aug-08 11:30N 49°29' E 000°29'0 0.0
2018-Aug-08 11:00N 49°29' E 000°29'3 5.9
2018-Aug-08 10:31N 49°27' E 000°33'0 0.5
2018-Aug-08 10:00N 49°28' E 000°33'0 0.1
2018-Aug-08 09:30N 49°28' E 000°33'0 0.1
2018-Aug-08 09:00N 49°28' E 000°33'0 0.2
2018-Aug-08 08:30N 49°28' E 000°33'0 0.1
2018-Aug-08 08:00N 49°28' E 000°33'1 1.0
2018-Aug-08 07:31N 49°27' E 000°33'0 0.6
2018-Aug-08 07:00N 49°27' E 000°33'0 0.6
2018-Aug-08 06:30N 49°27' E 000°33'3 6.5
2018-Aug-08 06:01N 49°29' E 000°29'0 0.0
2018-Aug-08 05:30N 49°29' E 000°29'0 0.0
2018-Aug-08 05:00N 49°29' E 000°29'0 0.0
2018-Aug-08 04:30N 49°29' E 000°29'0 0.0
2018-Aug-08 04:00N 49°29' E 000°29'0 0.0
2018-Aug-08 03:30N 49°29' E 000°29'0 0.0
2018-Aug-08 03:00N 49°29' E 000°29'0 0.0
2018-Aug-08 02:30N 49°29' E 000°29'0 0.0
2018-Aug-08 02:00N 49°29' E 000°29'0 0.0
2018-Aug-08 01:30N 49°29' E 000°29'0 0.0
2018-Aug-08 01:00N 49°29' E 000°29'0 0.0
2018-Aug-08 00:30N 49°29' E 000°29'0 0.0
2018-Aug-08 00:00N 49°29' E 000°29'0 0.0
2018-Aug-07 23:30N 49°29' E 000°29'0 0.0
2018-Aug-07 23:00N 49°29' E 000°29'0 0.0
2018-Aug-07 22:30N 49°29' E 000°29'0 0.0
2018-Aug-07 22:00N 49°29' E 000°29'0 0.0
2018-Aug-07 21:30N 49°29' E 000°29'0 0.0
2018-Aug-07 21:00N 49°29' E 000°29'0 0.0
2018-Aug-07 20:30N 49°29' E 000°29'0 0.0
2018-Aug-07 20:00N 49°29' E 000°29'0 0.0
2018-Aug-07 19:30N 49°29' E 000°29'0 0.0
2018-Aug-07 19:00N 49°29' E 000°29'0 0.0
2018-Aug-07 18:30N 49°29' E 000°29'0 0.0
2018-Aug-07 17:58N 49°29' E 000°29'0 0.0
2018-Aug-07 17:30N 49°29' E 000°29'0 0.0
2018-Aug-07 16:53N 49°29' E 000°29'0 0.0
2018-Aug-07 16:30N 49°29' E 000°29'0 0.0
2018-Aug-07 15:56N 49°29' E 000°29'0 0.0
2018-Aug-07 15:26N 49°29' E 000°29'0 0.0
2018-Aug-07 15:00N 49°29' E 000°29'1 2.1
2018-Aug-07 14:30N 49°29' E 000°31'2 4.2
2018-Aug-07 14:00N 49°27' E 000°33'0 0.2
2018-Aug-07 13:30N 49°27' E 000°33'0 0.2
2018-Aug-07 13:00N 49°27' E 000°33'0 0.1
2018-Aug-07 12:30N 49°27' E 000°33'0 0.3
2018-Aug-07 12:00N 49°27' E 000°33'0 0.9
2018-Aug-07 11:30N 49°28' E 000°33'0 0.0
2018-Aug-07 11:00N 49°28' E 000°33'0 0.0
2018-Aug-07 10:30N 49°28' E 000°33'0 0.9
2018-Aug-07 10:00N 49°27' E 000°33'0 0.1
2018-Aug-07 09:30N 49°27' E 000°33'0 0.2
2018-Aug-07 09:01N 49°27' E 000°33'0 0.1
2018-Aug-07 08:30N 49°27' E 000°33'0 0.1
2018-Aug-07 08:00N 49°27' E 000°33'0 0.1
2018-Aug-07 07:30N 49°27' E 000°33'0 0.2
2018-Aug-07 07:01N 49°28' E 000°33'3 5.8
2018-Aug-07 06:31N 49°29' E 000°29'0 0.1
2018-Aug-07 06:00N 49°29' E 000°29'0 0.0
2018-Aug-07 05:30N 49°29' E 000°29'0 0.0
2018-Aug-07 04:58N 49°29' E 000°29'0 0.0
2018-Aug-07 04:30N 49°29' E 000°29'0 0.0
2018-Aug-07 04:00N 49°29' E 000°29'0 0.0
2018-Aug-07 03:29N 49°29' E 000°29'0 0.0
2018-Aug-07 03:00N 49°29' E 000°29'0 0.0
2018-Aug-07 02:30N 49°29' E 000°29'0 0.0
2018-Aug-07 02:00N 49°29' E 000°29'0 0.0
2018-Aug-07 01:30N 49°29' E 000°29'0 0.0
2018-Aug-07 01:00N 49°29' E 000°29'0 0.0
2018-Aug-07 00:30N 49°29' E 000°29'0 0.0
2018-Aug-07 00:00N 49°29' E 000°29'0 0.0
2018-Aug-06 23:30N 49°29' E 000°29'0 0.0
2018-Aug-06 22:59N 49°29' E 000°29'0 0.0
2018-Aug-06 22:30N 49°29' E 000°29'0 0.0
2018-Aug-06 22:00N 49°29' E 000°29'0 0.0
2018-Aug-06 21:30N 49°29' E 000°29'0 0.0
2018-Aug-06 21:00N 49°29' E 000°29'0 0.0
2018-Aug-06 20:29N 49°29' E 000°29'0 0.0
2018-Aug-06 20:00N 49°29' E 000°29'0 0.0
2018-Aug-06 19:30N 49°29' E 000°29'0 0.0
2018-Aug-06 19:00N 49°29' E 000°29'0 0.0
2018-Aug-06 18:30N 49°29' E 000°29'0 0.0
2018-Aug-06 17:56N 49°29' E 000°29'0 0.0
2018-Aug-06 17:30N 49°29' E 000°29'0 0.0
2018-Aug-06 16:59N 49°29' E 000°29'0 0.0
2018-Aug-06 16:30N 49°29' E 000°29'0 0.0
2018-Aug-06 16:00N 49°29' E 000°29'0 0.1
2018-Aug-06 15:30N 49°29' E 000°29'0 0.0
2018-Aug-06 15:00N 49°29' E 000°29'0 0.0
2018-Aug-06 14:30N 49°29' E 000°29'0 0.0
2018-Aug-06 14:00N 49°29' E 000°29'0 0.0
2018-Aug-06 13:30N 49°29' E 000°29'0 0.0
2018-Aug-06 13:00N 49°29' E 000°29'0 0.0
2018-Aug-06 12:30N 49°29' E 000°29'0 0.0
2018-Aug-06 12:00N 49°29' E 000°29'0 0.0
2018-Aug-06 11:30N 49°29' E 000°29'0 0.0
2018-Aug-06 11:00N 49°29' E 000°29'0 0.0
2018-Aug-06 10:30N 49°29' E 000°29'0 0.0
2018-Aug-06 10:00N 49°29' E 000°29'2 3.0
2018-Aug-06 09:30N 49°28' E 000°28'3 6.2
2018-Aug-06 09:00N 49°27' E 000°23'3 5.3
2018-Aug-06 08:30N 49°26' E 000°19'3 6.0
2018-Aug-06 08:00N 49°26' E 000°15'3 7.0
2018-Aug-06 07:30N 49°26' E 000°10'4 8.2
2018-Aug-06 07:00N 49°27' E 000°03'5 9.4
2018-Aug-06 06:30N 49°27' W 000°04'5 9.3
2018-Aug-06 06:00N 49°28' W 000°11'5 9.2
2018-Aug-06 05:30N 49°29' W 000°18'5 9.3
2018-Aug-06 05:00N 49°31' W 000°25'5 9.6
2018-Aug-06 04:30N 49°32' W 000°32'5 9.8
2018-Aug-06 04:00N 49°34' W 000°39'5 9.7
2018-Aug-06 03:29N 49°35' W 000°46'3710.6
2018-Aug-05 23:58N 49°45' W 001°42'1010.8
2018-Aug-05 23:00N 49°45' W 001°58'510.4
2018-Aug-05 22:31N 49°41' W 002°02'5 9.2
2018-Aug-05 22:01N 49°37' W 002°05'7 8.4
2018-Aug-05 21:07N 49°30' W 002°11'3 7.9
2018-Aug-05 20:42N 49°27' W 002°14'2 7.4
2018-Aug-05 20:28N 49°26' W 002°16'5 7.3
2018-Aug-05 19:49N 49°23' W 002°21'2 7.1
2018-Aug-05 19:30N 49°22' W 002°24'5 7.4
2018-Aug-05 18:51N 49°19' W 002°31'5 7.5
2018-Aug-05 18:12N 49°18' W 002°38'4 7.5
2018-Aug-05 17:42N 49°16' W 002°43'2 7.4
2018-Aug-05 17:27N 49°15' W 002°45'4 7.6
2018-Aug-05 16:59N 49°13' W 002°50'4 7.7
2018-Aug-05 16:30N 49°12' W 002°55'4 7.7
2018-Aug-05 16:00N 49°10' W 003°00'4 7.6
2018-Aug-05 15:30N 49°08' W 003°05'4 7.7
2018-Aug-05 15:00N 49°06' W 003°10'6 7.7
2018-Aug-05 14:17N 49°03' W 003°18'15 8.4
2018-Aug-05 12:28N 48°56' W 003°38'43 9.7
2018-Aug-05 08:02N 48°39' W 004°38'011.1
2018-Aug-05 08:00N 48°39' W 004°39'510.9
2018-Aug-05 07:30N 48°36' W 004°46'510.5
2018-Aug-05 07:00N 48°31' W 004°49'5 9.6
2018-Aug-05 06:30N 48°27' W 004°49'510.0
2018-Aug-05 06:01N 48°22' W 004°48'1 1.2
2018-Aug-05 05:30N 48°22' W 004°47'2 3.8
2018-Aug-05 05:00N 48°20' W 004°47'4 8.3
2018-Aug-05 04:30N 48°16' W 004°46'4 7.9
2018-Aug-05 04:00N 48°12' W 004°46'4 7.9
2018-Aug-05 03:30N 48°08' W 004°46'4 7.8
2018-Aug-05 03:00N 48°04' W 004°46'5 9.6
2018-Aug-05 02:30N 47°59' W 004°43'26 9.5
2018-Aug-04 23:49N 47°41' W 004°17'3 9.5
2018-Aug-04 23:27N 47°39' W 004°12'6 9.5
2018-Aug-04 22:52N 47°37' W 004°05'4 9.3
2018-Aug-04 22:28N 47°35' W 003°60'4 9.1
2018-Aug-04 22:00N 47°34' W 003°54'5 9.1
2018-Aug-04 21:30N 47°32' W 003°48'5 9.2
2018-Aug-04 21:00N 47°30' W 003°42'5 9.4
2018-Aug-04 20:30N 47°29' W 003°35'5 9.2
2018-Aug-04 20:00N 47°27' W 003°29'5 9.0
2018-Aug-04 19:30N 47°26' W 003°23'5 9.0
2018-Aug-04 19:00N 47°24' W 003°16'5 9.1
2018-Aug-04 18:30N 47°22' W 003°10'4 8.5
2018-Aug-04 18:00N 47°21' W 003°04'5 9.2
2018-Aug-04 17:30N 47°20' W 002°58'4 9.0
2018-Aug-04 17:00N 47°18' W 002°51'5 8.9
2018-Aug-04 16:30N 47°19' W 002°45'4 8.9
2018-Aug-04 16:00N 47°20' W 002°38'4 8.1
2018-Aug-04 15:30N 47°20' W 002°32'0 0.1
2018-Aug-04 15:00N 47°20' W 002°32'0 0.0
2018-Aug-04 14:30N 47°20' W 002°32'1 3.0
2018-Aug-04 14:00N 47°20' W 002°34'510.2
2018-Aug-04 13:30N 47°18' W 002°41'5 9.0
2018-Aug-04 12:58N 47°14' W 002°46'0 0.3
2018-Aug-04 12:29N 47°14' W 002°46'0 0.3
2018-Aug-04 12:00N 47°14' W 002°46'0 0.1
2018-Aug-04 11:30N 47°14' W 002°46'0 0.7
2018-Aug-04 11:00N 47°14' W 002°46'0 0.0
2018-Aug-04 10:30N 47°14' W 002°46'0 0.0
2018-Aug-04 10:00N 47°14' W 002°46'0 0.0
2018-Aug-04 09:30N 47°14' W 002°46'0 0.0
2018-Aug-04 08:58N 47°14' W 002°46'0 0.0
2018-Aug-04 08:30N 47°14' W 002°46'0 0.0
2018-Aug-04 07:59N 47°14' W 002°46'0 0.0
2018-Aug-04 07:29N 47°14' W 002°46'0 0.0
2018-Aug-04 07:00N 47°14' W 002°46'0 0.0
2018-Aug-04 06:30N 47°14' W 002°46'0 0.0
2018-Aug-04 06:00N 47°14' W 002°46'1 1.3
2018-Aug-04 05:30N 47°15' W 002°46'610.9
2018-Aug-04 05:00N 47°18' W 002°40'611.3
2018-Aug-04 04:30N 47°20' W 002°32'1 1.4
2018-Aug-04 04:00N 47°21' W 002°31'0 0.0
2018-Aug-04 03:30N 47°21' W 002°31'0 0.0
2018-Aug-04 03:00N 47°21' W 002°31'0 0.0
2018-Aug-04 02:29N 47°21' W 002°31'0 0.0
2018-Aug-04 02:00N 47°21' W 002°31'0 0.0
2018-Aug-04 01:28N 47°21' W 002°31'0 0.0
2018-Aug-04 00:58N 47°21' W 002°31'0 0.0
2018-Aug-04 00:30N 47°21' W 002°31'0 0.0
2018-Aug-04 00:00N 47°21' W 002°31'0 0.0
2018-Aug-03 23:27N 47°21' W 002°31'0 0.0
2018-Aug-03 22:57N 47°21' W 002°31'0 0.0
2018-Aug-03 22:30N 47°21' W 002°31'0 0.0
2018-Aug-03 22:00N 47°21' W 002°31'0 0.0
2018-Aug-03 21:30N 47°21' W 002°31'0 0.0
2018-Aug-03 21:00N 47°21' W 002°31'0 0.0
2018-Aug-03 20:30N 47°21' W 002°31'0 0.0
2018-Aug-03 20:00N 47°21' W 002°31'  

Dump ship's entire track history